Time;durP1;ratioP1;P1;durP2;ratioP2;P2;SDS_P1;SDS_P2;PMS_P1;PMS_P2;Temp;Humidity;BMP_temperature;BMP_pressure;BME280_temperature;BME280_humidity;BME280_pressure;Samples;Min_cycle;Max_cycle;Signal;HPM_P1;HPM_P2
2023/11/21 00:00:18;;;;;;;18.60;11.10;;;;;;;-0.25;67.94;100160.89;107524;1257;72746;-68
2023/11/21 00:02:46;;;;;;;18.80;11.90;;;;;;;-0.30;68.14;100160.30;107649;1257;61223;-66
2023/11/21 00:05:14;;;;;;;17.50;11.10;;;;;;;-0.35;68.26;100158.17;107587;1256;61271;-67
2023/11/21 00:07:42;;;;;;;19.00;11.20;;;;;;;-0.41;68.29;100155.81;107617;1257;72457;-68
2023/11/21 00:10:10;;;;;;;18.00;11.20;;;;;;;-0.48;68.51;100152.98;107577;1257;73443;-67
2023/11/21 00:12:41;;;;;;;19.90;11.30;;;;;;;-0.55;68.59;100151.95;107589;1257;72680;-67
2023/11/21 00:15:12;;;;;;;20.10;11.90;;;;;;;-0.62;68.93;100153.00;107726;1257;61115;-67
2023/11/21 00:17:40;;;;;;;18.80;10.90;;;;;;;-0.66;68.98;100158.10;107665;1257;61154;-68
2023/11/21 00:20:08;;;;;;;19.40;11.70;;;;;;;-0.70;69.19;100159.49;107572;1257;73415;-67
2023/11/21 00:22:36;;;;;;;19.30;11.90;;;;;;;-0.72;69.25;100153.19;107606;1257;72674;-68
2023/11/21 00:25:05;;;;;;;18.20;11.30;;;;;;;-0.73;69.62;100159.59;107615;1259;70488;-66
2023/11/21 00:27:32;;;;;;;18.80;11.30;;;;;;;-0.74;69.72;100156.16;107601;1258;61039;-66
2023/11/21 00:30:00;;;;;;;19.00;11.30;;;;;;;-0.76;70.03;100160.72;107485;1257;62720;-66
2023/11/21 00:32:27;;;;;;;19.20;12.20;;;;;;;-0.77;70.06;100161.36;107569;1257;73452;-66
2023/11/21 00:34:55;;;;;;;19.60;12.20;;;;;;;-0.79;70.26;100160.80;107612;1257;72736;-66
2023/11/21 00:37:23;;;;;;;22.80;12.70;;;;;;;-0.81;70.29;100160.60;107653;1257;72524;-66
2023/11/21 00:39:51;;;;;;;28.60;14.10;;;;;;;-0.81;70.22;100167.48;107542;1257;61136;-67
2023/11/21 00:42:19;;;;;;;29.30;15.20;;;;;;;-0.82;70.56;100170.52;107626;1257;61285;-68
2023/11/21 00:44:46;;;;;;;33.10;16.10;;;;;;;-0.81;70.59;100178.83;107526;1257;73389;-68
2023/11/21 00:47:14;;;;;;;30.40;16.20;;;;;;;-0.79;70.72;100181.55;107587;1257;71596;-67
2023/11/21 00:49:43;;;;;;;28.90;14.90;;;;;;;-0.80;70.61;100183.06;107597;1262;70571;-67
2023/11/21 00:52:16;;;;;;;25.60;14.20;;;;;;;-0.83;71.12;100188.65;107666;1257;60163;-67
2023/11/21 00:54:46;;;;;;;31.60;16.60;;;;;;;-0.86;70.84;100194.11;107679;1259;59138;-67
2023/11/21 00:57:21;;;;;;;37.20;18.00;;;;;;;-0.87;70.76;100198.79;107603;1258;74756;-67
2023/11/21 01:00:00;;;;;;;38.40;18.50;;;;;;;-0.87;70.91;100200.64;107600;1257;72728;-68
2023/11/21 01:02:52;;;;;;;44.20;19.90;;;;;;;-0.88;71.19;100196.58;107692;1258;72481;-67
2023/11/21 01:05:40;;;;;;;41.10;17.80;;;;;;;-0.89;71.08;100195.71;107683;1261;61574;-68
2023/11/21 01:08:18;;;;;;;30.80;15.90;;;;;;;-0.91;71.30;100192.67;107631;1257;61356;-67
2023/11/21 01:11:21;;;;;;;29.30;15.90;;;;;;;-0.97;71.63;100190.41;108288;1259;73809;-67
2023/11/21 01:14:10;;;;;;;27.90;14.60;;;;;;;-1.00;72.07;100200.08;107630;1257;72703;-67
2023/11/21 01:16:39;;;;;;;25.00;13.90;;;;;;;-0.99;72.29;100203.14;107642;1257;72715;-67
2023/11/21 01:19:07;;;;;;;24.30;12.80;;;;;;;-0.99;72.44;100208.70;107438;1257;60858;-67
2023/11/21 01:21:35;;;;;;;23.30;12.90;;;;;;;-1.01;72.43;100203.04;107687;1257;61207;-68
2023/11/21 01:24:05;;;;;;;24.50;13.20;;;;;;;-1.04;72.65;100200.80;107729;1260;74712;-68
2023/11/21 01:26:33;;;;;;;23.60;14.30;;;;;;;-1.07;72.91;100193.84;107753;1257;72027;-68
2023/11/21 01:29:01;;;;;;;25.30;13.90;;;;;;;-1.11;72.95;100189.13;107701;1257;75445;-68
2023/11/21 01:31:29;;;;;;;27.10;14.50;;;;;;;-1.10;73.30;100194.02;107480;1257;59366;-67
2023/11/21 01:33:58;;;;;;;24.50;12.90;;;;;;;-1.06;73.11;100192.04;107613;1257;60493;-68
2023/11/21 01:36:32;;;;;;;24.90;13.70;;;;;;;-1.06;73.05;100195.23;107701;1257;73683;-68
2023/11/21 01:39:00;;;;;;;25.20;14.20;;;;;;;-1.09;73.17;100194.02;107632;1257;72694;-69
2023/11/21 01:41:28;;;;;;;21.60;12.80;;;;;;;-1.09;73.32;100197.86;107766;1257;72776;-67
2023/11/21 01:43:56;;;;;;;22.70;13.70;;;;;;;-1.08;73.61;100197.83;107571;1257;61138;-67
2023/11/21 01:46:24;;;;;;;23.70;13.40;;;;;;;-1.08;73.32;100201.58;107411;1257;222501;-67
2023/11/21 01:48:53;;;;;;;23.10;13.30;;;;;;;-1.07;73.38;100207.06;107645;1257;74718;-68
2023/11/21 01:51:20;;;;;;;24.40;14.40;;;;;;;-1.03;73.67;100204.25;107570;1262;72364;-68
2023/11/21 01:53:48;;;;;;;26.10;14.80;;;;;;;-1.00;73.52;100200.96;107598;1259;72479;-68
2023/11/21 01:56:16;;;;;;;20.20;13.40;;;;;;;-0.99;73.60;100204.67;107538;1258;61257;-68
2023/11/21 01:58:44;;;;;;;22.20;13.90;;;;;;;-0.99;73.68;100203.59;107538;1259;61209;-68
2023/11/21 02:01:14;;;;;;;23.30;13.50;;;;;;;-0.98;73.55;100206.58;107702;1258;75103;-70
2023/11/21 02:03:42;;;;;;;19.80;13.40;;;;;;;-0.96;73.93;100212.75;107679;1257;71125;-68
2023/11/21 02:06:09;;;;;;;23.60;13.60;;;;;;;-0.97;73.68;100213.96;107533;1259;72684;-67
2023/11/21 02:08:37;;;;;;;23.00;13.20;;;;;;;-0.96;73.83;100216.69;107541;1257;61064;-68
2023/11/21 02:11:06;;;;;;;21.50;13.40;;;;;;;-0.93;73.79;100219.55;107676;1262;61298;-67
2023/11/21 02:13:34;;;;;;;19.80;12.90;;;;;;;-0.93;73.91;100223.11;107557;1259;73154;-67
2023/11/21 02:16:01;;;;;;;22.50;13.10;;;;;;;-0.90;73.87;100227.02;107524;1259;71467;-66
2023/11/21 02:18:29;;;;;;;20.60;13.20;;;;;;;-0.88;73.93;100224.48;107476;1259;73139;-68
2023/11/21 02:20:57;;;;;;;19.90;12.70;;;;;;;-0.86;74.05;100221.62;107525;1257;61224;-67
2023/11/21 02:23:28;;;;;;;19.80;12.90;;;;;;;-0.86;74.15;100218.77;107596;1259;60514;-69
2023/11/21 02:25:56;;;;;;;21.10;12.70;;;;;;;-0.87;73.84;100221.05;107496;1259;73879;-68
2023/11/21 02:28:25;;;;;;;19.80;12.80;;;;;;;-0.91;73.88;100219.25;107507;1257;73077;-68
2023/11/21 02:30:56;;;;;;;22.40;14.00;;;;;;;-0.97;73.79;100224.50;107612;1260;71395;-68
2023/11/21 02:33:24;;;;;;;24.10;14.80;;;;;;;-1.03;73.63;100227.27;107725;1257;60076;-68
2023/11/21 02:35:54;;;;;;;22.90;13.80;;;;;;;-1.05;73.87;100232.58;107661;1257;61171;-68
2023/11/21 02:38:22;;;;;;;25.60;13.70;;;;;;;-1.09;73.92;100237.02;107683;1258;74231;-68
2023/11/21 02:40:50;;;;;;;24.50;13.90;;;;;;;-1.13;73.71;100236.98;107516;1258;72914;-68
2023/11/21 02:43:17;;;;;;;22.20;13.40;;;;;;;-1.18;73.65;100237.90;107595;1260;72708;-68
2023/11/21 02:45:45;;;;;;;21.10;12.90;;;;;;;-1.23;73.93;100237.52;107664;1257;59948;-68
2023/11/21 02:48:13;;;;;;;24.00;14.20;;;;;;;-1.29;73.87;100237.35;107556;1257;61270;-68
2023/11/21 02:50:43;;;;;;;25.70;15.00;;;;;;;-1.34;74.28;100244.24;107592;1257;73465;-68
2023/11/21 02:53:10;;;;;;;27.50;15.40;;;;;;;-1.36;74.04;100251.89;107589;1257;72727;-68
2023/11/21 02:55:38;;;;;;;25.70;14.20;;;;;;;-1.39;74.04;100251.15;107592;1259;73297;-68
2023/11/21 02:58:06;;;;;;;22.30;14.00;;;;;;;-1.41;74.24;100251.19;107523;1259;61167;-68
2023/11/21 03:00:34;;;;;;;23.10;13.70;;;;;;;-1.41;74.28;100257.48;107558;1259;61111;-68
2023/11/21 03:03:02;;;;;;;24.70;13.70;;;;;;;-1.40;74.26;100265.77;107654;1257;73031;-69
2023/11/21 03:05:30;;;;;;;22.40;13.40;;;;;;;-1.42;74.27;100268.95;107572;1262;72462;-67
2023/11/21 03:07:58;;;;;;;23.70;13.00;;;;;;;-1.46;74.35;100263.83;107541;1259;72634;-68
2023/11/21 03:10:27;;;;;;;23.40;13.30;;;;;;;-1.50;74.48;100261.86;107544;1260;61064;-68
2023/11/21 03:12:57;;;;;;;24.00;13.70;;;;;;;-1.52;74.60;100263.56;107619;1257;62269;-68
2023/11/21 03:15:24;;;;;;;20.60;12.60;;;;;;;-1.56;74.42;100264.95;107559;1257;73456;-68
2023/11/21 03:17:52;;;;;;;21.70;12.80;;;;;;;-1.60;74.52;100264.42;107683;1259;70792;-67
2023/11/21 03:20:20;;;;;;;21.00;11.60;;;;;;;-1.62;74.68;100267.67;107630;1258;72793;-67
2023/11/21 03:22:47;;;;;;;18.90;11.20;;;;;;;-1.68;74.71;100262.30;107616;1258;60922;-68
2023/11/21 03:25:17;;;;;;;28.30;12.50;;;;;;;-1.72;75.21;100261.96;107629;1257;61220;-68
2023/11/21 03:27:45;;;;;;;19.30;11.70;;;;;;;-1.75;75.44;100265.80;107725;1259;74657;-69
2023/11/21 03:30:12;;;;;;;18.20;11.60;;;;;;;-1.79;75.53;100266.60;107813;1258;73101;-69
2023/11/21 03:32:42;;;;;;;18.20;11.80;;;;;;;-1.84;75.98;100267.06;107544;1260;72651;-69
2023/11/21 03:35:09;;;;;;;20.10;12.20;;;;;;;-1.89;76.11;100260.88;107518;1258;61144;-69
2023/11/21 03:37:41;;;;;;;22.50;13.80;;;;;;;-1.94;76.33;100265.28;107565;1257;61262;-69
2023/11/21 03:40:09;;;;;;;21.00;12.50;;;;;;;-2.00;76.29;100264.80;107471;1258;74632;-69
2023/11/21 03:42:37;;;;;;;22.70;13.30;;;;;;;-2.09;76.30;100264.09;107631;1257;72963;-69
2023/11/21 03:45:05;;;;;;;26.90;16.30;;;;;;;-2.14;76.34;100260.08;107623;1258;71889;-69
2023/11/21 03:47:33;;;;;;;31.20;17.50;;;;;;;-2.19;76.44;100258.28;107825;1257;60868;-69
2023/11/21 03:50:03;;;;;;;30.10;17.20;;;;;;;-2.22;76.59;100262.48;107864;1257;61142;-70
2023/11/21 03:52:30;;;;;;;28.10;16.10;;;;;;;-2.22;76.83;100267.14;107702;1258;73586;-70
2023/11/21 03:55:00;;;;;;;33.70;18.80;;;;;;;-2.24;77.24;100268.19;107669;1259;72962;-69
2023/11/21 03:57:28;;;;;;;30.00;17.50;;;;;;;-2.26;77.60;100266.73;107729;1257;71101;-70
2023/11/21 03:59:56;;;;;;;33.50;18.40;;;;;;;-2.24;77.34;100265.20;107748;1257;61167;-68
2023/11/21 04:02:25;;;;;;;32.70;17.50;;;;;;;-2.23;77.67;100265.20;107759;1257;62922;-70
2023/11/21 04:04:53;;;;;;;32.30;17.90;;;;;;;-2.22;77.58;100265.96;107707;1257;74654;-71
2023/11/21 04:07:21;;;;;;;27.60;16.50;;;;;;;-2.22;77.62;100271.67;107783;1257;72762;-69
2023/11/21 04:09:49;;;;;;;26.40;15.60;;;;;;;-2.22;77.64;100273.25;107769;1258;71391;-70
2023/11/21 04:12:17;;;;;;;25.60;14.40;;;;;;;-2.21;77.65;100274.52;107780;1257;61278;-70
2023/11/21 04:14:44;;;;;;;22.50;13.90;;;;;;;-2.22;77.91;100275.22;107766;1258;61139;-69
2023/11/21 04:17:12;;;;;;;23.30;13.80;;;;;;;-2.24;77.70;100285.34;107771;1259;72402;-69
2023/11/21 04:19:40;;;;;;;26.50;15.10;;;;;;;-2.27;78.08;100292.49;107821;1258;71626;-69
2023/11/21 04:22:08;;;;;;;22.60;13.40;;;;;;;-2.29;78.09;100296.74;107764;1257;72697;-70
2023/11/21 04:24:36;;;;;;;25.60;14.10;;;;;;;-2.28;78.23;100300.36;107926;1259;61092;-69
2023/11/21 04:27:03;;;;;;;24.90;13.70;;;;;;;-2.28;78.50;100303.83;107792;1259;60202;-69
2023/11/21 04:29:31;;;;;;;24.70;13.40;;;;;;;-2.28;79.01;100301.77;107761;1259;74768;-70
2023/11/21 04:31:59;;;;;;;23.60;14.10;;;;;;;-2.28;79.17;100307.82;107843;1259;72759;-69
2023/11/21 04:34:27;;;;;;;23.80;13.00;;;;;;;-2.31;79.68;100307.69;107728;1259;71524;-70
2023/11/21 04:36:55;;;;;;;22.10;13.70;;;;;;;-2.35;80.06;100304.48;107762;1259;60871;-70
2023/11/21 04:39:23;;;;;;;21.40;13.10;;;;;;;-2.39;80.54;100300.90;107755;1262;60763;-69
2023/11/21 04:41:52;;;;;;;22.30;14.10;;;;;;;-2.47;80.61;100300.00;107664;1259;73356;-69
2023/11/21 04:44:19;;;;;;;22.30;13.40;;;;;;;-2.59;80.64;100306.02;107743;1257;75159;-69
2023/11/21 04:46:47;;;;;;;24.60;13.50;;;;;;;-2.68;80.82;100302.86;107769;1259;72461;-69
2023/11/21 04:49:15;;;;;;;25.60;15.80;;;;;;;-2.76;80.89;100310.25;107688;1258;61285;-69
2023/11/21 04:51:42;;;;;;;28.90;15.90;;;;;;;-2.82;81.16;100319.48;107710;1259;60325;-69
2023/11/21 04:54:10;;;;;;;28.70;16.50;;;;;;;-2.85;81.33;100319.23;107653;1260;74468;-69
2023/11/21 04:56:38;;;;;;;30.80;18.30;;;;;;;-2.86;81.27;100321.38;107583;1257;71455;-69
2023/11/21 04:59:05;;;;;;;33.90;17.20;;;;;;;-2.92;81.43;100319.76;107684;1257;71445;-70
2023/11/21 05:01:33;;;;;;;32.90;18.90;;;;;;;-2.97;81.74;100328.15;107823;1257;61114;-70
2023/11/21 05:04:00;;;;;;;29.90;17.90;;;;;;;-3.01;81.93;100328.23;107751;1257;61274;-70
2023/11/21 05:06:28;;;;;;;33.80;19.80;;;;;;;-2.98;82.44;100334.92;107719;1257;73423;-69
2023/11/21 05:08:56;;;;;;;32.10;18.90;;;;;;;-2.92;82.78;100342.36;107872;1260;71546;-69
2023/11/21 05:11:27;;;;;;;33.00;19.80;;;;;;;-2.84;83.20;100347.59;107709;1260;72823;-69
2023/11/21 05:13:56;;;;;;;35.60;19.00;;;;;;;-2.76;83.54;100357.63;107769;1260;61254;-69
2023/11/21 05:16:27;;;;;;;32.80;18.60;;;;;;;-2.73;83.37;100361.63;107706;1258;61129;-69
2023/11/21 05:19:00;;;;;;;31.80;18.10;;;;;;;-2.67;83.59;100360.04;107767;1258;73687;-69
2023/11/21 05:21:29;;;;;;;36.10;20.00;;;;;;;-2.62;84.16;100362.26;107780;1257;70494;-69
2023/11/21 05:23:57;;;;;;;34.20;20.30;;;;;;;-2.60;84.20;100364.17;107858;1261;74909;-70
2023/11/21 05:26:24;;;;;;;32.40;19.50;;;;;;;-2.57;84.75;100365.40;107711;1260;61321;-69
2023/11/21 05:28:52;;;;;;;32.30;19.70;;;;;;;-2.52;85.13;100370.85;107787;1259;61389;-69
2023/11/21 05:31:20;;;;;;;28.40;17.70;;;;;;;-2.46;85.50;100374.14;107789;1262;74655;-69
2023/11/21 05:33:47;;;;;;;27.40;17.70;;;;;;;-2.40;86.21;100370.90;107638;1258;71638;-70
2023/11/21 05:36:15;;;;;;;29.40;17.10;;;;;;;-2.31;86.45;100368.55;107775;1260;72524;-70
2023/11/21 05:38:43;;;;;;;30.20;17.70;;;;;;;-2.24;86.93;100362.41;107826;1258;61310;-70
2023/11/21 05:41:13;;;;;;;29.10;16.60;;;;;;;-2.18;87.13;100355.98;107787;1259;60178;-70
2023/11/21 05:43:41;;;;;;;31.20;17.80;;;;;;;-2.10;87.33;100361.21;107724;1257;74663;-71
2023/11/21 05:46:09;;;;;;;29.10;17.90;;;;;;;-2.04;87.46;100370.35;107709;1257;72769;-69
2023/11/21 05:48:37;;;;;;;28.60;17.10;;;;;;;-1.98;87.66;100374.95;107725;1259;71425;-70
2023/11/21 05:51:06;;;;;;;26.70;17.10;;;;;;;-1.89;88.13;100383.99;107715;1260;61084;-69
2023/11/21 05:53:34;;;;;;;26.40;16.90;;;;;;;-1.79;88.07;100391.13;107779;1262;61012;-69
2023/11/21 05:56:03;;;;;;;28.70;16.00;;;;;;;-1.68;88.34;100395.55;107665;1257;73441;-69
2023/11/21 05:58:31;;;;;;;28.40;17.10;;;;;;;-1.57;88.51;100398.77;107749;1259;71442;-70
2023/11/21 06:00:59;;;;;;;26.10;16.10;;;;;;;-1.45;88.82;100399.96;107802;1259;71415;-70
2023/11/21 06:03:27;;;;;;;24.60;15.60;;;;;;;-1.33;88.62;100402.38;107711;1260;61106;-69
2023/11/21 06:05:55;;;;;;;24.20;16.00;;;;;;;-1.19;88.59;100400.41;107754;1257;61261;-71
2023/11/21 06:08:22;;;;;;;25.40;16.40;;;;;;;-1.10;88.25;100396.48;107852;1257;74611;-70
2023/11/21 06:10:50;;;;;;;24.20;15.80;;;;;;;-1.00;87.99;100395.33;107735;1257;71589;-69
2023/11/21 06:13:24;;;;;;;23.70;15.00;;;;;;;-0.91;87.83;100393.38;107714;1258;71431;-69
2023/11/21 06:15:52;;;;;;;24.80;15.30;;;;;;;-0.83;87.68;100394.15;107734;1257;61122;-69
2023/11/21 06:18:19;;;;;;;20.70;13.40;;;;;;;-0.79;87.18;100392.17;107769;1257;61119;-69
2023/11/21 06:20:48;;;;;;;25.20;14.50;;;;;;;-0.74;86.70;100392.64;107864;1259;73101;-69
2023/11/21 06:23:16;;;;;;;22.20;14.70;;;;;;;-0.70;86.34;100390.29;107902;1257;71599;-70
2023/11/21 06:25:44;;;;;;;28.20;15.90;;;;;;;-0.72;85.62;100391.16;107739;1260;71370;-69
2023/11/21 06:28:17;;;;;;;28.10;15.90;;;;;;;-0.74;85.05;100392.52;107697;1260;61107;-70
2023/11/21 06:30:45;;;;;;;27.60;17.00;;;;;;;-0.71;84.91;100397.70;107694;1259;61113;-70
2023/11/21 06:33:13;;;;;;;26.80;16.80;;;;;;;-0.66;84.52;100391.53;107822;1258;74743;-70
2023/11/21 06:35:41;;;;;;;24.70;15.80;;;;;;;-0.62;84.63;100388.19;107587;1257;72935;-69
2023/11/21 06:38:09;;;;;;;20.70;14.10;;;;;;;-0.57;84.43;100393.96;107802;1259;72468;-69
2023/11/21 06:40:37;;;;;;;21.30;13.60;;;;;;;-0.55;83.97;100391.80;107746;1260;61199;-69
2023/11/21 06:43:06;;;;;;;21.60;13.40;;;;;;;-0.55;83.82;100395.30;107758;1260;61327;-69
2023/11/21 06:45:34;;;;;;;21.00;13.90;;;;;;;-0.53;83.47;100395.45;107709;1258;72545;-70
2023/11/21 06:48:02;;;;;;;24.70;15.70;;;;;;;-0.50;83.63;100399.14;107819;1260;72450;-71
2023/11/21 06:50:30;;;;;;;26.40;16.90;;;;;;;-0.46;83.31;100401.33;107771;1262;73108;-69
2023/11/21 06:52:58;;;;;;;26.30;15.80;;;;;;;-0.39;82.80;100401.98;107818;1257;61262;-69
2023/11/21 06:55:26;;;;;;;24.90;16.60;;;;;;;-0.22;82.72;100401.81;107789;1257;61108;-70
2023/11/21 06:57:54;;;;;;;24.80;16.50;;;;;;;-0.16;82.88;100406.02;107760;1258;73655;-70
2023/11/21 07:00:22;;;;;;;26.20;17.40;;;;;;;-0.03;82.75;100403.48;107705;1258;72693;-70
2023/11/21 07:02:49;;;;;;;27.80;16.70;;;;;;;0.06;82.47;100395.95;107736;1257;72696;-70
2023/11/21 07:05:20;;;;;;;27.60;18.50;;;;;;;0.08;81.72;100395.96;107701;1262;61167;-69
2023/11/21 07:07:49;;;;;;;32.30;20.30;;;;;;;0.08;81.15;100399.28;107991;1262;61092;-68
2023/11/21 07:10:17;;;;;;;37.10;23.10;;;;;;;0.06;80.62;100400.51;107755;1260;74606;-70
2023/11/21 07:12:45;;;;;;;36.70;22.00;;;;;;;0.04;80.51;100401.27;107724;1260;71447;-69
2023/11/21 07:15:13;;;;;;;34.20;23.30;;;;;;;0.06;80.67;100408.23;107900;1261;71453;-69
2023/11/21 07:17:41;;;;;;;33.90;23.90;;;;;;;0.08;80.61;100404.25;107773;1259;62189;-70
2023/11/21 07:20:10;;;;;;;27.50;18.80;;;;;;;0.11;80.44;100404.66;107894;1260;61237;-70
2023/11/21 07:22:39;;;;;;;25.80;17.30;;;;;;;0.13;80.20;100406.19;107959;1257;73208;-69
2023/11/21 07:25:07;;;;;;;26.70;17.30;;;;;;;0.17;80.42;100406.29;107773;1257;70749;-69
2023/11/21 07:27:35;;;;;;;28.70;18.40;;;;;;;0.21;80.35;100408.34;107763;1257;72695;-69
2023/11/21 07:30:05;;;;;;;26.70;17.30;;;;;;;0.29;80.39;100411.57;107722;1259;61337;-70
2023/11/21 07:32:33;;;;;;;20.20;14.40;;;;;;;0.39;80.12;100412.24;107712;1257;61246;-69
2023/11/21 07:35:01;;;;;;;21.40;14.30;;;;;;;0.45;80.21;100407.05;107776;1262;74660;-69
2023/11/21 07:37:29;;;;;;;19.20;13.50;;;;;;;0.51;79.78;100402.92;107748;1260;73419;-68
2023/11/21 07:39:57;;;;;;;16.90;11.50;;;;;;;0.55;79.61;100409.41;107863;1258;72695;-68
2023/11/21 07:42:27;;;;;;;15.80;10.60;;;;;;;0.55;79.33;100410.92;107688;1260;61163;-68
2023/11/21 07:44:56;;;;;;;18.70;11.50;;;;;;;0.52;79.05;100406.41;107753;1257;61269;-68
2023/11/21 07:47:27;;;;;;;16.80;11.40;;;;;;;0.50;78.90;100405.95;107703;1258;74671;-68
2023/11/21 07:49:58;;;;;;;20.30;13.60;;;;;;;0.51;78.74;100410.25;107669;1260;71955;-68
2023/11/21 07:52:25;;;;;;;15.80;10.90;;;;;;;0.53;78.65;100410.93;107694;1260;72699;-69
2023/11/21 07:54:53;;;;;;;19.20;10.90;;;;;;;0.53;78.38;100416.94;107695;1260;61016;-68
2023/11/21 07:57:21;;;;;;;15.20;10.30;;;;;;;0.51;77.96;100415.30;107741;1257;61139;-68
2023/11/21 07:59:48;;;;;;;15.30;9.80;;;;;;;0.51;77.67;100413.73;107950;1262;74624;-69
2023/11/21 08:02:17;;;;;;;14.30;10.10;;;;;;;0.55;77.63;100416.13;107701;1258;72517;-69
2023/11/21 08:04:45;;;;;;;14.60;10.40;;;;;;;0.63;77.51;100424.25;107707;1258;71052;-69
2023/11/21 08:07:13;;;;;;;13.50;9.60;;;;;;;0.73;77.63;100426.33;107818;1257;61166;-68
2023/11/21 08:09:41;;;;;;;15.60;10.70;;;;;;;0.79;77.12;100425.54;107832;1257;61193;-69
2023/11/21 08:12:10;;;;;;;14.30;8.90;;;;;;;0.84;76.60;100426.85;107781;1262;74182;-69
2023/11/21 08:14:40;;;;;;;13.20;9.00;;;;;;;0.89;76.20;100421.98;107732;1262;74828;-68
2023/11/21 08:17:10;;;;;;;12.30;8.70;;;;;;;0.95;75.62;100419.77;107675;1260;71417;-69
2023/11/21 08:19:38;;;;;;;11.30;7.30;;;;;;;1.04;75.34;100420.74;107702;1258;61282;-69
2023/11/21 08:22:07;;;;;;;12.00;8.00;;;;;;;1.10;74.90;100421.11;107668;1257;61143;-68
2023/11/21 08:24:35;;;;;;;11.30;7.70;;;;;;;1.13;74.17;100420.64;107682;1258;74667;-68
2023/11/21 08:27:04;;;;;;;11.10;7.70;;;;;;;1.23;73.77;100420.95;107696;1259;72738;-68
2023/11/21 08:29:31;;;;;;;10.80;7.20;;;;;;;1.33;73.13;100423.73;107665;1262;72519;-70
2023/11/21 08:31:59;;;;;;;14.70;8.90;;;;;;;1.40;72.67;100427.54;107810;1260;61208;-69
2023/11/21 08:34:28;;;;;;;14.20;9.00;;;;;;;1.47;72.32;100420.31;107702;1262;60512;-69
2023/11/21 08:36:57;;;;;;;11.50;8.00;;;;;;;1.56;71.90;100424.25;107775;1258;73348;-69
2023/11/21 08:39:26;;;;;;;13.30;8.60;;;;;;;1.64;71.28;100430.73;107673;1258;73043;-69
2023/11/21 08:41:54;;;;;;;11.50;8.30;;;;;;;1.68;70.80;100426.60;107760;1258;71444;-69
2023/11/21 08:44:22;;;;;;;12.50;8.20;;;;;;;1.70;70.23;100422.56;107761;1259;61251;-68
2023/11/21 08:46:50;;;;;;;13.10;7.70;;;;;;;1.74;69.54;100420.45;107737;1259;61081;-67
2023/11/21 08:49:18;;;;;;;10.40;7.20;;;;;;;1.72;69.03;100417.05;107849;1258;73504;-68
2023/11/21 08:51:45;;;;;;;10.30;6.70;;;;;;;1.68;68.50;100416.52;107692;1262;71716;-68
2023/11/21 08:54:14;;;;;;;11.70;7.50;;;;;;;1.64;68.11;100410.80;107799;1259;71062;-68
2023/11/21 08:56:43;;;;;;;12.10;8.50;;;;;;;1.64;67.77;100415.91;107778;1261;61323;-68
2023/11/21 08:59:11;;;;;;;10.40;7.60;;;;;;;1.63;67.33;100420.11;107703;1257;60063;-69
2023/11/21 09:01:40;;;;;;;9.70;7.10;;;;;;;1.60;67.14;100424.70;107713;1259;74946;-68
2023/11/21 09:04:08;;;;;;;10.00;6.90;;;;;;;1.59;66.95;100422.02;107728;1258;72699;-68
2023/11/21 09:06:36;;;;;;;12.70;7.60;;;;;;;1.59;66.84;100420.50;107744;1262;73123;-67
2023/11/21 09:09:10;;;;;;;10.50;7.10;;;;;;;1.59;66.48;100412.27;107798;1260;61252;-68
2023/11/21 09:11:37;;;;;;;12.00;7.90;;;;;;;1.58;66.41;100418.51;107777;1260;61221;-67
2023/11/21 09:47:16;;;;;;;17.10;8.60;;;;;;;2.00;64.08;100408.70;105222;1289;601005;-69
2023/11/21 09:49:49;;;;;;;12.90;8.10;;;;;;;1.99;64.02;100411.05;107436;1265;59526;-68
2023/11/21 09:52:27;;;;;;;13.70;8.10;;;;;;;1.99;63.87;100407.65;107456;1263;59465;-70
2023/11/21 09:54:58;;;;;;;13.90;7.90;;;;;;;1.99;63.68;100407.29;107376;1264;71936;-68
2023/11/21 09:57:25;;;;;;;19.90;9.50;;;;;;;2.01;63.55;100408.46;107443;1263;72499;-68
2023/11/21 09:59:56;;;;;;;17.70;8.70;;;;;;;2.03;63.67;100404.66;107256;1263;243606;-68
2023/11/21 10:02:26;;;;;;;15.00;8.70;;;;;;;2.07;63.46;100399.41;107566;1263;59588;-68
2023/11/21 10:04:54;;;;;;;13.20;8.50;;;;;;;2.08;63.38;100403.11;107491;1267;59013;-68
2023/11/21 10:07:22;;;;;;;16.40;8.50;;;;;;;2.10;63.18;100406.71;107412;1263;71205;-68
2023/11/21 10:09:50;;;;;;;13.40;8.00;;;;;;;2.13;63.11;100401.95;107353;1263;72839;-68
2023/11/21 10:12:17;;;;;;;13.10;8.50;;;;;;;2.18;63.22;100394.93;107408;1263;72462;-68
2023/11/21 10:14:46;;;;;;;12.70;8.30;;;;;;;2.18;63.08;100391.54;107468;1262;61741;-69
2023/11/21 10:17:16;;;;;;;12.60;7.90;;;;;;;2.23;63.06;100395.98;107566;1262;62398;-67
2023/11/21 10:19:45;;;;;;;16.80;9.30;;;;;;;2.25;63.14;100394.20;107483;1263;73249;-69
2023/11/21 10:22:14;;;;;;;14.50;8.50;;;;;;;2.22;62.98;100394.15;107470;1264;71875;-68
2023/11/21 10:24:43;;;;;;;18.10;9.40;;;;;;;2.21;62.94;100392.13;107494;1262;70992;-69
2023/11/21 10:27:20;;;;;;;11.90;8.40;;;;;;;2.22;62.92;100393.66;107544;1264;59614;-69
2023/11/21 10:29:47;;;;;;;13.50;8.00;;;;;;;2.28;63.07;100398.58;107464;1263;59426;-68
2023/11/21 10:32:15;;;;;;;14.10;8.30;;;;;;;2.37;63.03;100396.92;107374;1263;75276;-69
2023/11/21 10:34:57;;;;;;;14.60;8.70;;;;;;;2.44;62.88;100395.13;107539;1263;70631;-68
2023/11/21 10:37:25;;;;;;;19.70;9.60;;;;;;;2.48;62.63;100397.23;107532;1263;72835;-68
2023/11/21 10:39:58;;;;;;;16.60;9.20;;;;;;;2.52;62.67;100395.06;107487;1264;60864;-68
2023/11/21 10:42:27;;;;;;;14.70;8.80;;;;;;;2.61;62.66;100391.81;107497;1262;59606;-68
2023/11/21 10:44:55;;;;;;;15.30;9.50;;;;;;;2.69;62.50;100391.27;107519;1263;73179;-68
2023/11/21 10:47:56;;;;;;;16.50;9.90;;;;;;;2.67;61.82;100390.30;108180;1253;72830;-69
2023/11/21 10:50:25;;;;;;;14.30;8.80;;;;;;;2.63;61.88;100395.95;108165;1253;74978;-69
2023/11/21 10:52:53;;;;;;;14.00;8.70;;;;;;;2.67;61.78;100404.45;108263;1253;59554;-68
2023/11/21 10:55:22;;;;;;;15.30;9.30;;;;;;;2.75;61.76;100408.85;108185;1253;59273;-70
2023/11/21 10:57:52;;;;;;;13.50;8.60;;;;;;;2.79;61.64;100408.80;108173;1254;73414;-69
2023/11/21 11:00:22;;;;;;;14.60;8.80;;;;;;;2.80;61.36;100407.50;108191;1253;71680;-68
2023/11/21 11:02:51;;;;;;;16.60;9.60;;;;;;;2.75;60.89;100409.91;108000;1253;71777;-69
2023/11/21 11:05:20;;;;;;;15.90;8.90;;;;;;;2.76;61.02;100411.85;108348;1252;60027;-67
2023/11/21 11:07:48;;;;;;;14.80;8.70;;;;;;;2.81;60.75;100413.20;108257;1253;60961;-67
2023/11/21 11:10:16;;;;;;;15.90;8.30;;;;;;;2.82;60.63;100417.14;108142;1257;73184;-67
2023/11/21 11:12:45;;;;;;;14.00;9.00;;;;;;;2.82;60.47;100413.66;108209;1253;71711;-67
2023/11/21 11:15:13;;;;;;;15.30;8.40;;;;;;;2.75;60.37;100415.71;108157;1253;70740;-67
2023/11/21 11:17:41;;;;;;;14.50;8.20;;;;;;;2.75;60.45;100412.86;108193;1253;59418;-68
2023/11/21 11:20:12;;;;;;;14.40;8.80;;;;;;;2.75;60.25;100413.19;108073;1253;60434;-68
2023/11/21 11:23:05;;;;;;;11.30;7.90;;;;;;;2.71;60.29;100413.82;108182;1253;73244;-68
2023/11/21 11:25:45;;;;;;;13.30;8.40;;;;;;;2.71;60.36;100421.33;108196;1253;72982;-68
2023/11/21 11:28:57;;;;;;;11.50;7.70;;;;;;;2.74;60.31;100424.06;108138;1253;72361;-68
2023/11/21 11:31:45;;;;;;;15.30;9.00;;;;;;;2.74;60.18;100413.67;108162;1252;61013;-67
2023/11/21 11:34:32;;;;;;;15.80;9.60;;;;;;;2.62;59.81;100413.89;108178;1252;60104;-68
2023/11/21 11:37:03;;;;;;;12.80;8.20;;;;;;;2.53;59.99;100423.81;108191;1252;72410;-69
2023/11/21 11:39:34;;;;;;;12.30;8.70;;;;;;;2.48;59.97;100427.92;108112;1252;72754;-69
2023/11/21 11:42:06;;;;;;;13.80;9.20;;;;;;;2.46;59.99;100422.82;108090;1253;70469;-69
2023/11/21 11:44:46;;;;;;;13.10;8.40;;;;;;;2.43;59.85;100424.35;108175;1254;59494;-67
2023/11/21 11:47:16;;;;;;;16.50;9.80;;;;;;;2.41;60.02;100420.06;108279;1253;59773;-69
2023/11/21 11:50:20;;;;;;;15.60;10.30;;;;;;;2.34;60.10;100416.68;108068;1253;73775;-69